sensor_id;sensor_type;location;lat;lon;timestamp;P1;durP1;ratioP1;P2;durP2;ratioP2
38911;SDS011;28444;48.056;14.408;2023-03-17T00:01:49;7.60;;;4.38;;
38911;SDS011;28444;48.056;14.408;2023-03-17T00:04:20;6.53;;;3.85;;
38911;SDS011;28444;48.056;14.408;2023-03-17T00:06:49;6.90;;;5.15;;
38911;SDS011;28444;48.056;14.408;2023-03-17T00:09:17;8.23;;;5.25;;
38911;SDS011;28444;48.056;14.408;2023-03-17T00:11:45;11.07;;;4.78;;
38911;SDS011;28444;48.056;14.408;2023-03-17T00:14:12;11.73;;;4.30;;
38911;SDS011;28444;48.056;14.408;2023-03-17T00:16:40;9.70;;;4.72;;
38911;SDS011;28444;48.056;14.408;2023-03-17T00:19:12;5.88;;;3.78;;
38911;SDS011;28444;48.056;14.408;2023-03-17T00:21:41;10.98;;;4.85;;
38911;SDS011;28444;48.056;14.408;2023-03-17T00:24:11;8.93;;;4.20;;
38911;SDS011;28444;48.056;14.408;2023-03-17T00:26:40;10.95;;;4.93;;
38911;SDS011;28444;48.056;14.408;2023-03-17T00:29:08;11.00;;;4.40;;
38911;SDS011;28444;48.056;14.408;2023-03-17T00:31:35;6.32;;;4.93;;
38911;SDS011;28444;48.056;14.408;2023-03-17T00:34:03;6.03;;;4.15;;
38911;SDS011;28444;48.056;14.408;2023-03-17T00:36:31;15.18;;;3.83;;
38911;SDS011;28444;48.056;14.408;2023-03-17T00:38:59;8.52;;;4.28;;
38911;SDS011;28444;48.056;14.408;2023-03-17T00:41:26;7.82;;;3.65;;
38911;SDS011;28444;48.056;14.408;2023-03-17T00:43:54;7.05;;;3.90;;
38911;SDS011;28444;48.056;14.408;2023-03-17T00:46:29;10.10;;;4.00;;
38911;SDS011;28444;48.056;14.408;2023-03-17T00:49:02;11.98;;;4.15;;
38911;SDS011;28444;48.056;14.408;2023-03-17T00:51:42;7.35;;;4.30;;
38911;SDS011;28444;48.056;14.408;2023-03-17T00:54:10;7.13;;;4.82;;
38911;SDS011;28444;48.056;14.408;2023-03-17T00:56:38;12.02;;;4.63;;
38911;SDS011;28444;48.056;14.408;2023-03-17T00:59:11;9.95;;;5.03;;
38911;SDS011;28444;48.056;14.408;2023-03-17T01:01:46;10.13;;;5.32;;
38911;SDS011;28444;48.056;14.408;2023-03-17T01:04:14;8.98;;;4.70;;
38911;SDS011;28444;48.056;14.408;2023-03-17T01:06:41;9.25;;;4.90;;
38911;SDS011;28444;48.056;14.408;2023-03-17T01:09:10;8.65;;;4.95;;
38911;SDS011;28444;48.056;14.408;2023-03-17T01:11:39;7.32;;;4.20;;
38911;SDS011;28444;48.056;14.408;2023-03-17T01:14:08;7.30;;;4.20;;
38911;SDS011;28444;48.056;14.408;2023-03-17T01:16:35;10.43;;;5.20;;
38911;SDS011;28444;48.056;14.408;2023-03-17T01:19:02;10.63;;;4.22;;
38911;SDS011;28444;48.056;14.408;2023-03-17T01:21:30;5.65;;;4.15;;
38911;SDS011;28444;48.056;14.408;2023-03-17T01:23:57;9.90;;;4.57;;
38911;SDS011;28444;48.056;14.408;2023-03-17T01:26:24;15.45;;;5.88;;
38911;SDS011;28444;48.056;14.408;2023-03-17T01:28:51;14.65;;;4.43;;
38911;SDS011;28444;48.056;14.408;2023-03-17T01:31:18;7.97;;;5.35;;
38911;SDS011;28444;48.056;14.408;2023-03-17T01:33:45;9.18;;;4.90;;
38911;SDS011;28444;48.056;14.408;2023-03-17T01:36:12;8.75;;;4.30;;
38911;SDS011;28444;48.056;14.408;2023-03-17T01:38:39;7.68;;;4.38;;
38911;SDS011;28444;48.056;14.408;2023-03-17T01:41:06;10.60;;;4.38;;
38911;SDS011;28444;48.056;14.408;2023-03-17T01:43:33;7.88;;;4.70;;
38911;SDS011;28444;48.056;14.408;2023-03-17T01:49:12;11.45;;;5.13;;
38911;SDS011;28444;48.056;14.408;2023-03-17T01:54:45;8.30;;;5.25;;
38911;SDS011;28444;48.056;14.408;2023-03-17T01:57:24;7.88;;;4.40;;
38911;SDS011;28444;48.056;14.408;2023-03-17T02:00:07;11.85;;;5.10;;
38911;SDS011;28444;48.056;14.408;2023-03-17T02:02:37;8.40;;;4.20;;
38911;SDS011;28444;48.056;14.408;2023-03-17T02:05:08;8.20;;;4.38;;
38911;SDS011;28444;48.056;14.408;2023-03-17T02:07:37;6.95;;;3.92;;
38911;SDS011;28444;48.056;14.408;2023-03-17T02:10:05;10.05;;;4.60;;
38911;SDS011;28444;48.056;14.408;2023-03-17T02:12:34;6.15;;;3.72;;
38911;SDS011;28444;48.056;14.408;2023-03-17T02:15:01;7.30;;;3.75;;
38911;SDS011;28444;48.056;14.408;2023-03-17T02:17:28;5.03;;;3.05;;
38911;SDS011;28444;48.056;14.408;2023-03-17T02:19:55;4.35;;;3.00;;
38911;SDS011;28444;48.056;14.408;2023-03-17T02:22:22;7.32;;;4.55;;
38911;SDS011;28444;48.056;14.408;2023-03-17T02:24:53;5.80;;;3.10;;
38911;SDS011;28444;48.056;14.408;2023-03-17T02:27:31;6.63;;;3.17;;
38911;SDS011;28444;48.056;14.408;2023-03-17T02:30:01;8.43;;;3.08;;
38911;SDS011;28444;48.056;14.408;2023-03-17T02:32:32;9.20;;;3.15;;
38911;SDS011;28444;48.056;14.408;2023-03-17T02:35:00;3.60;;;2.70;;
38911;SDS011;28444;48.056;14.408;2023-03-17T02:37:27;3.20;;;2.90;;
38911;SDS011;28444;48.056;14.408;2023-03-17T02:39:54;4.88;;;2.70;;
38911;SDS011;28444;48.056;14.408;2023-03-17T02:42:20;9.38;;;2.80;;
38911;SDS011;28444;48.056;14.408;2023-03-17T02:44:47;6.40;;;3.00;;
38911;SDS011;28444;48.056;14.408;2023-03-17T02:47:14;9.40;;;3.00;;
38911;SDS011;28444;48.056;14.408;2023-03-17T02:49:41;7.30;;;3.03;;
38911;SDS011;28444;48.056;14.408;2023-03-17T02:52:08;5.65;;;2.70;;
38911;SDS011;28444;48.056;14.408;2023-03-17T02:54:35;7.97;;;3.65;;
38911;SDS011;28444;48.056;14.408;2023-03-17T02:57:02;10.40;;;3.65;;
38911;SDS011;28444;48.056;14.408;2023-03-17T02:59:29;5.45;;;3.67;;
38911;SDS011;28444;48.056;14.408;2023-03-17T03:01:55;7.53;;;4.07;;
38911;SDS011;28444;48.056;14.408;2023-03-17T03:04:22;5.70;;;3.90;;
38911;SDS011;28444;48.056;14.408;2023-03-17T03:06:49;8.02;;;4.18;;
38911;SDS011;28444;48.056;14.408;2023-03-17T03:09:16;10.40;;;4.57;;
38911;SDS011;28444;48.056;14.408;2023-03-17T03:11:43;7.55;;;4.13;;
38911;SDS011;28444;48.056;14.408;2023-03-17T03:14:10;7.72;;;4.20;;
38911;SDS011;28444;48.056;14.408;2023-03-17T03:16:37;8.68;;;4.63;;
38911;SDS011;28444;48.056;14.408;2023-03-17T03:19:04;7.35;;;4.07;;
38911;SDS011;28444;48.056;14.408;2023-03-17T03:21:32;5.93;;;4.55;;
38911;SDS011;28444;48.056;14.408;2023-03-17T03:23:59;8.80;;;4.50;;
38911;SDS011;28444;48.056;14.408;2023-03-17T03:26:25;7.72;;;4.95;;
38911;SDS011;28444;48.056;14.408;2023-03-17T03:28:52;9.65;;;4.68;;
38911;SDS011;28444;48.056;14.408;2023-03-17T03:31:19;9.85;;;4.35;;
38911;SDS011;28444;48.056;14.408;2023-03-17T03:33:46;8.90;;;4.68;;
38911;SDS011;28444;48.056;14.408;2023-03-17T03:36:13;8.10;;;4.88;;
38911;SDS011;28444;48.056;14.408;2023-03-17T03:38:40;8.98;;;5.45;;
38911;SDS011;28444;48.056;14.408;2023-03-17T03:41:07;7.55;;;5.13;;
38911;SDS011;28444;48.056;14.408;2023-03-17T03:43:34;8.98;;;4.32;;
38911;SDS011;28444;48.056;14.408;2023-03-17T03:46:01;11.02;;;4.68;;
38911;SDS011;28444;48.056;14.408;2023-03-17T03:48:29;9.07;;;4.90;;
38911;SDS011;28444;48.056;14.408;2023-03-17T03:50:56;9.07;;;4.55;;
38911;SDS011;28444;48.056;14.408;2023-03-17T03:53:24;11.43;;;4.63;;
38911;SDS011;28444;48.056;14.408;2023-03-17T03:55:51;7.60;;;4.47;;
38911;SDS011;28444;48.056;14.408;2023-03-17T03:58:18;8.25;;;5.05;;
38911;SDS011;28444;48.056;14.408;2023-03-17T04:00:45;12.80;;;5.55;;
38911;SDS011;28444;48.056;14.408;2023-03-17T04:03:12;8.93;;;4.57;;
38911;SDS011;28444;48.056;14.408;2023-03-17T04:05:39;11.23;;;5.35;;
38911;SDS011;28444;48.056;14.408;2023-03-17T04:08:06;11.68;;;5.50;;
38911;SDS011;28444;48.056;14.408;2023-03-17T04:10:33;8.18;;;5.55;;
38911;SDS011;28444;48.056;14.408;2023-03-17T04:13:00;9.32;;;5.68;;
38911;SDS011;28444;48.056;14.408;2023-03-17T04:15:27;8.15;;;4.38;;
38911;SDS011;28444;48.056;14.408;2023-03-17T04:17:53;9.32;;;5.15;;
38911;SDS011;28444;48.056;14.408;2023-03-17T04:20:20;8.00;;;5.00;;
38911;SDS011;28444;48.056;14.408;2023-03-17T04:22:47;22.10;;;7.43;;
38911;SDS011;28444;48.056;14.408;2023-03-17T04:25:14;7.75;;;5.35;;
38911;SDS011;28444;48.056;14.408;2023-03-17T04:27:41;11.95;;;5.00;;
38911;SDS011;28444;48.056;14.408;2023-03-17T04:30:09;11.63;;;6.47;;
38911;SDS011;28444;48.056;14.408;2023-03-17T04:32:39;7.88;;;5.22;;
38911;SDS011;28444;48.056;14.408;2023-03-17T04:35:07;17.63;;;5.10;;
38911;SDS011;28444;48.056;14.408;2023-03-17T04:37:39;12.35;;;6.50;;
38911;SDS011;28444;48.056;14.408;2023-03-17T04:40:06;9.82;;;5.13;;
38911;SDS011;28444;48.056;14.408;2023-03-17T04:42:35;9.60;;;5.55;;
38911;SDS011;28444;48.056;14.408;2023-03-17T04:45:03;12.43;;;5.43;;
38911;SDS011;28444;48.056;14.408;2023-03-17T04:47:31;13.52;;;4.93;;
38911;SDS011;28444;48.056;14.408;2023-03-17T04:49:58;10.30;;;5.57;;
38911;SDS011;28444;48.056;14.408;2023-03-17T04:52:25;10.27;;;5.28;;
38911;SDS011;28444;48.056;14.408;2023-03-17T04:54:52;9.50;;;5.07;;
38911;SDS011;28444;48.056;14.408;2023-03-17T04:57:19;19.30;;;6.10;;
38911;SDS011;28444;48.056;14.408;2023-03-17T04:59:45;10.52;;;5.57;;
38911;SDS011;28444;48.056;14.408;2023-03-17T05:02:12;9.32;;;4.72;;
38911;SDS011;28444;48.056;14.408;2023-03-17T05:04:39;24.58;;;14.02;;
38911;SDS011;28444;48.056;14.408;2023-03-17T05:07:05;24.67;;;16.80;;
38911;SDS011;28444;48.056;14.408;2023-03-17T05:09:32;18.50;;;12.63;;
38911;SDS011;28444;48.056;14.408;2023-03-17T05:11:59;17.30;;;14.68;;
38911;SDS011;28444;48.056;14.408;2023-03-17T05:14:25;14.73;;;11.20;;
38911;SDS011;28444;48.056;14.408;2023-03-17T05:16:52;12.35;;;10.60;;
38911;SDS011;28444;48.056;14.408;2023-03-17T05:19:19;14.52;;;11.25;;
38911;SDS011;28444;48.056;14.408;2023-03-17T05:21:46;15.07;;;9.43;;
38911;SDS011;28444;48.056;14.408;2023-03-17T05:24:13;23.00;;;13.10;;
38911;SDS011;28444;48.056;14.408;2023-03-17T05:26:40;18.73;;;13.43;;
38911;SDS011;28444;48.056;14.408;2023-03-17T05:29:06;23.80;;;19.42;;
38911;SDS011;28444;48.056;14.408;2023-03-17T05:31:34;12.82;;;10.48;;
38911;SDS011;28444;48.056;14.408;2023-03-17T05:34:01;15.40;;;9.07;;
38911;SDS011;28444;48.056;14.408;2023-03-17T05:36:29;9.15;;;7.40;;
38911;SDS011;28444;48.056;14.408;2023-03-17T05:38:56;7.35;;;5.90;;
38911;SDS011;28444;48.056;14.408;2023-03-17T05:41:23;9.40;;;5.10;;
38911;SDS011;28444;48.056;14.408;2023-03-17T05:43:50;7.82;;;5.50;;
38911;SDS011;28444;48.056;14.408;2023-03-17T05:46:17;10.02;;;5.50;;
38911;SDS011;28444;48.056;14.408;2023-03-17T05:48:45;12.30;;;4.95;;
38911;SDS011;28444;48.056;14.408;2023-03-17T05:51:12;14.30;;;5.30;;
38911;SDS011;28444;48.056;14.408;2023-03-17T05:53:39;10.63;;;5.57;;
38911;SDS011;28444;48.056;14.408;2023-03-17T05:56:06;7.32;;;4.78;;
38911;SDS011;28444;48.056;14.408;2023-03-17T05:58:33;10.93;;;5.57;;
38911;SDS011;28444;48.056;14.408;2023-03-17T06:01:00;11.55;;;5.53;;
38911;SDS011;28444;48.056;14.408;2023-03-17T06:03:27;10.30;;;5.25;;
38911;SDS011;28444;48.056;14.408;2023-03-17T06:05:53;9.98;;;5.13;;
38911;SDS011;28444;48.056;14.408;2023-03-17T06:08:20;10.75;;;6.00;;
38911;SDS011;28444;48.056;14.408;2023-03-17T06:10:47;9.05;;;5.15;;
38911;SDS011;28444;48.056;14.408;2023-03-17T06:13:13;19.27;;;6.63;;
38911;SDS011;28444;48.056;14.408;2023-03-17T06:15:40;12.52;;;6.07;;
38911;SDS011;28444;48.056;14.408;2023-03-17T06:18:08;16.92;;;5.30;;
38911;SDS011;28444;48.056;14.408;2023-03-17T06:20:35;13.25;;;4.82;;
38911;SDS011;28444;48.056;14.408;2023-03-17T06:23:02;10.90;;;5.13;;
38911;SDS011;28444;48.056;14.408;2023-03-17T06:25:31;10.75;;;5.18;;
38911;SDS011;28444;48.056;14.408;2023-03-17T06:27:59;12.90;;;5.57;;
38911;SDS011;28444;48.056;14.408;2023-03-17T06:30:29;7.88;;;5.00;;
38911;SDS011;28444;48.056;14.408;2023-03-17T06:32:58;9.20;;;5.10;;
38911;SDS011;28444;48.056;14.408;2023-03-17T06:35:25;11.10;;;5.97;;
38911;SDS011;28444;48.056;14.408;2023-03-17T06:37:52;14.00;;;6.43;;
38911;SDS011;28444;48.056;14.408;2023-03-17T06:40:20;11.27;;;5.78;;
38911;SDS011;28444;48.056;14.408;2023-03-17T06:42:46;11.05;;;5.05;;
38911;SDS011;28444;48.056;14.408;2023-03-17T06:45:13;20.23;;;5.35;;
38911;SDS011;28444;48.056;14.408;2023-03-17T06:47:40;11.30;;;6.18;;
38911;SDS011;28444;48.056;14.408;2023-03-17T06:50:07;22.48;;;8.38;;
38911;SDS011;28444;48.056;14.408;2023-03-17T06:52:35;26.27;;;7.60;;
38911;SDS011;28444;48.056;14.408;2023-03-17T06:55:02;12.10;;;6.75;;
38911;SDS011;28444;48.056;14.408;2023-03-17T06:57:30;10.82;;;5.85;;
38911;SDS011;28444;48.056;14.408;2023-03-17T06:59:57;14.32;;;6.43;;
38911;SDS011;28444;48.056;14.408;2023-03-17T07:02:24;16.50;;;5.90;;
38911;SDS011;28444;48.056;14.408;2023-03-17T07:04:50;12.23;;;6.07;;
38911;SDS011;28444;48.056;14.408;2023-03-17T07:07:17;11.55;;;5.28;;
38911;SDS011;28444;48.056;14.408;2023-03-17T07:09:46;7.90;;;4.93;;
38911;SDS011;28444;48.056;14.408;2023-03-17T07:12:13;15.77;;;5.82;;
38911;SDS011;28444;48.056;14.408;2023-03-17T07:14:40;8.43;;;5.13;;
38911;SDS011;28444;48.056;14.408;2023-03-17T07:17:09;16.05;;;5.20;;
38911;SDS011;28444;48.056;14.408;2023-03-17T07:19:37;8.95;;;5.07;;
38911;SDS011;28444;48.056;14.408;2023-03-17T07:22:05;13.75;;;5.65;;
38911;SDS011;28444;48.056;14.408;2023-03-17T07:24:32;15.07;;;5.63;;
38911;SDS011;28444;48.056;14.408;2023-03-17T07:26:59;9.25;;;5.30;;
38911;SDS011;28444;48.056;14.408;2023-03-17T07:29:26;11.93;;;4.72;;
38911;SDS011;28444;48.056;14.408;2023-03-17T07:31:54;12.18;;;5.50;;
38911;SDS011;28444;48.056;14.408;2023-03-17T07:34:21;12.30;;;5.55;;
38911;SDS011;28444;48.056;14.408;2023-03-17T07:36:48;11.55;;;6.30;;
38911;SDS011;28444;48.056;14.408;2023-03-17T07:39:15;9.40;;;5.30;;
38911;SDS011;28444;48.056;14.408;2023-03-17T07:41:41;14.13;;;6.10;;
38911;SDS011;28444;48.056;14.408;2023-03-17T07:44:09;15.13;;;6.18;;
38911;SDS011;28444;48.056;14.408;2023-03-17T07:46:36;20.10;;;6.78;;
38911;SDS011;28444;48.056;14.408;2023-03-17T07:49:04;14.77;;;5.30;;
38911;SDS011;28444;48.056;14.408;2023-03-17T07:51:31;10.65;;;5.88;;
38911;SDS011;28444;48.056;14.408;2023-03-17T07:53:58;12.25;;;5.75;;
38911;SDS011;28444;48.056;14.408;2023-03-17T07:56:29;12.75;;;4.65;;
38911;SDS011;28444;48.056;14.408;2023-03-17T07:58:57;8.35;;;4.68;;
38911;SDS011;28444;48.056;14.408;2023-03-17T08:01:25;11.00;;;5.15;;
38911;SDS011;28444;48.056;14.408;2023-03-17T08:03:53;11.60;;;4.88;;
38911;SDS011;28444;48.056;14.408;2023-03-17T08:06:22;9.35;;;4.47;;
38911;SDS011;28444;48.056;14.408;2023-03-17T08:08:53;12.05;;;4.60;;
38911;SDS011;28444;48.056;14.408;2023-03-17T08:11:20;14.00;;;5.32;;
38911;SDS011;28444;48.056;14.408;2023-03-17T08:13:48;9.77;;;7.60;;
38911;SDS011;28444;48.056;14.408;2023-03-17T08:16:15;14.52;;;5.93;;
38911;SDS011;28444;48.056;14.408;2023-03-17T08:18:42;8.40;;;4.57;;
38911;SDS011;28444;48.056;14.408;2023-03-17T08:21:09;9.77;;;4.22;;
38911;SDS011;28444;48.056;14.408;2023-03-17T08:23:36;10.05;;;4.85;;
38911;SDS011;28444;48.056;14.408;2023-03-17T08:26:03;13.65;;;4.40;;
38911;SDS011;28444;48.056;14.408;2023-03-17T08:28:30;10.80;;;4.40;;
38911;SDS011;28444;48.056;14.408;2023-03-17T08:31:09;10.82;;;4.40;;
38911;SDS011;28444;48.056;14.408;2023-03-17T08:33:39;11.25;;;5.07;;
38911;SDS011;28444;48.056;14.408;2023-03-17T08:36:08;7.68;;;4.05;;
38911;SDS011;28444;48.056;14.408;2023-03-17T08:38:36;7.38;;;4.40;;
38911;SDS011;28444;48.056;14.408;2023-03-17T08:41:05;14.52;;;4.85;;
38911;SDS011;28444;48.056;14.408;2023-03-17T08:43:34;11.48;;;4.28;;
38911;SDS011;28444;48.056;14.408;2023-03-17T08:46:04;7.78;;;3.83;;
38911;SDS011;28444;48.056;14.408;2023-03-17T08:48:33;11.57;;;5.72;;
38911;SDS011;28444;48.056;14.408;2023-03-17T08:51:02;8.98;;;4.32;;
38911;SDS011;28444;48.056;14.408;2023-03-17T08:53:30;10.10;;;4.45;;
38911;SDS011;28444;48.056;14.408;2023-03-17T08:55:57;11.45;;;4.20;;
38911;SDS011;28444;48.056;14.408;2023-03-17T08:58:24;13.07;;;4.30;;
38911;SDS011;28444;48.056;14.408;2023-03-17T09:00:51;6.72;;;3.72;;
38911;SDS011;28444;48.056;14.408;2023-03-17T09:03:18;5.95;;;3.65;;
38911;SDS011;28444;48.056;14.408;2023-03-17T09:05:46;5.95;;;3.83;;
38911;SDS011;28444;48.056;14.408;2023-03-17T09:08:13;5.45;;;3.17;;
38911;SDS011;28444;48.056;14.408;2023-03-17T09:10:40;4.90;;;3.63;;
38911;SDS011;28444;48.056;14.408;2023-03-17T09:13:09;11.23;;;4.18;;
38911;SDS011;28444;48.056;14.408;2023-03-17T09:15:36;7.28;;;3.65;;
38911;SDS011;28444;48.056;14.408;2023-03-17T09:18:04;11.85;;;4.65;;
38911;SDS011;28444;48.056;14.408;2023-03-17T09:20:32;9.82;;;4.68;;
38911;SDS011;28444;48.056;14.408;2023-03-17T09:22:59;5.85;;;3.90;;
38911;SDS011;28444;48.056;14.408;2023-03-17T09:25:26;9.95;;;4.78;;
38911;SDS011;28444;48.056;14.408;2023-03-17T09:27:52;7.28;;;4.40;;
38911;SDS011;28444;48.056;14.408;2023-03-17T09:30:20;8.07;;;4.00;;
38911;SDS011;28444;48.056;14.408;2023-03-17T09:32:47;10.20;;;3.95;;
38911;SDS011;28444;48.056;14.408;2023-03-17T09:35:14;5.60;;;3.88;;
38911;SDS011;28444;48.056;14.408;2023-03-17T09:37:41;15.55;;;5.00;;
38911;SDS011;28444;48.056;14.408;2023-03-17T09:40:09;12.02;;;4.10;;
38911;SDS011;28444;48.056;14.408;2023-03-17T09:42:52;7.68;;;4.75;;
38911;SDS011;28444;48.056;14.408;2023-03-17T09:45:34;5.95;;;4.25;;
38911;SDS011;28444;48.056;14.408;2023-03-17T09:51:01;10.73;;;4.65;;
38911;SDS011;28444;48.056;14.408;2023-03-17T09:56:40;9.32;;;4.40;;
38911;SDS011;28444;48.056;14.408;2023-03-17T09:59:31;9.38;;;4.18;;
38911;SDS011;28444;48.056;14.408;2023-03-17T10:02:00;10.20;;;4.45;;
38911;SDS011;28444;48.056;14.408;2023-03-17T10:04:28;8.98;;;4.55;;
38911;SDS011;28444;48.056;14.408;2023-03-17T10:06:57;10.52;;;4.05;;
38911;SDS011;28444;48.056;14.408;2023-03-17T10:09:40;5.05;;;3.80;;
38911;SDS011;28444;48.056;14.408;2023-03-17T10:15:22;9.55;;;4.90;;
38911;SDS011;28444;48.056;14.408;2023-03-17T10:17:57;7.90;;;4.00;;
38911;SDS011;28444;48.056;14.408;2023-03-17T10:20:28;9.23;;;4.75;;
38911;SDS011;28444;48.056;14.408;2023-03-17T10:23:02;7.60;;;4.55;;
38911;SDS011;28444;48.056;14.408;2023-03-17T10:25:36;6.97;;;4.47;;
38911;SDS011;28444;48.056;14.408;2023-03-17T10:28:09;7.88;;;4.45;;
38911;SDS011;28444;48.056;14.408;2023-03-17T10:30:49;6.68;;;4.28;;
38911;SDS011;28444;48.056;14.408;2023-03-17T10:33:17;6.00;;;4.47;;
38911;SDS011;28444;48.056;14.408;2023-03-17T10:35:44;9.80;;;4.47;;
38911;SDS011;28444;48.056;14.408;2023-03-17T10:38:16;8.45;;;4.60;;
38911;SDS011;28444;48.056;14.408;2023-03-17T10:40:45;9.90;;;4.85;;
38911;SDS011;28444;48.056;14.408;2023-03-17T10:43:20;8.50;;;4.50;;
38911;SDS011;28444;48.056;14.408;2023-03-17T10:45:54;11.55;;;4.75;;
38911;SDS011;28444;48.056;14.408;2023-03-17T10:48:25;7.60;;;4.35;;
38911;SDS011;28444;48.056;14.408;2023-03-17T10:50:54;8.98;;;5.00;;
38911;SDS011;28444;48.056;14.408;2023-03-17T10:53:24;9.50;;;4.68;;
38911;SDS011;28444;48.056;14.408;2023-03-17T10:55:57;7.63;;;4.95;;
38911;SDS011;28444;48.056;14.408;2023-03-17T10:58:39;10.80;;;4.45;;
38911;SDS011;28444;48.056;14.408;2023-03-17T11:01:16;8.10;;;4.07;;
38911;SDS011;28444;48.056;14.408;2023-03-17T11:03:48;9.45;;;4.65;;
38911;SDS011;28444;48.056;14.408;2023-03-17T11:06:15;12.82;;;5.45;;
38911;SDS011;28444;48.056;14.408;2023-03-17T11:11:32;9.65;;;4.45;;
38911;SDS011;28444;48.056;14.408;2023-03-17T11:14:10;6.47;;;4.78;;
38911;SDS011;28444;48.056;14.408;2023-03-17T11:16:41;6.93;;;4.10;;
38911;SDS011;28444;48.056;14.408;2023-03-17T11:19:19;8.82;;;4.65;;
38911;SDS011;28444;48.056;14.408;2023-03-17T11:21:55;8.68;;;4.65;;
38911;SDS011;28444;48.056;14.408;2023-03-17T11:24:33;10.30;;;4.43;;
38911;SDS011;28444;48.056;14.408;2023-03-17T11:30:44;7.55;;;4.43;;
38911;SDS011;28444;48.056;14.408;2023-03-17T11:36:07;10.40;;;4.22;;
38911;SDS011;28444;48.056;14.408;2023-03-17T11:42:03;8.45;;;4.40;;
38911;SDS011;28444;48.056;14.408;2023-03-17T11:45:22;12.90;;;5.22;;
38911;SDS011;28444;48.056;14.408;2023-03-17T11:48:02;12.20;;;4.70;;
38911;SDS011;28444;48.056;14.408;2023-03-17T11:50:59;9.75;;;4.97;;
38911;SDS011;28444;48.056;14.408;2023-03-17T11:56:46;6.88;;;4.18;;
38911;SDS011;28444;48.056;14.408;2023-03-17T11:59:34;9.68;;;4.30;;
38911;SDS011;28444;48.056;14.408;2023-03-17T12:03:36;7.80;;;5.40;;
38911;SDS011;28444;48.056;14.408;2023-03-17T12:05:21;9.32;;;5.10;;
38911;SDS011;28444;48.056;14.408;2023-03-17T12:07:57;10.82;;;5.57;;
38911;SDS011;28444;48.056;14.408;2023-03-17T12:10:32;10.18;;;4.82;;
38911;SDS011;28444;48.056;14.408;2023-03-17T12:13:34;9.30;;;4.93;;
38911;SDS011;28444;48.056;14.408;2023-03-17T12:16:09;10.10;;;6.05;;
38911;SDS011;28444;48.056;14.408;2023-03-17T12:19:49;9.43;;;5.03;;
38911;SDS011;28444;48.056;14.408;2023-03-17T12:21:51;13.73;;;5.72;;
38911;SDS011;28444;48.056;14.408;2023-03-17T12:24:26;7.07;;;4.60;;
38911;SDS011;28444;48.056;14.408;2023-03-17T12:27:43;11.35;;;5.60;;
38911;SDS011;28444;48.056;14.408;2023-03-17T12:33:35;10.65;;;5.93;;
38911;SDS011;28444;48.056;14.408;2023-03-17T12:35:54;8.68;;;5.53;;
38911;SDS011;28444;48.056;14.408;2023-03-17T12:38:23;11.93;;;5.38;;
38911;SDS011;28444;48.056;14.408;2023-03-17T12:44:22;13.05;;;6.20;;
38911;SDS011;28444;48.056;14.408;2023-03-17T12:50:45;13.50;;;5.40;;
38911;SDS011;28444;48.056;14.408;2023-03-17T12:53:19;10.05;;;5.22;;
38911;SDS011;28444;48.056;14.408;2023-03-17T12:55:52;10.02;;;5.50;;
38911;SDS011;28444;48.056;14.408;2023-03-17T12:58:28;13.15;;;5.80;;
38911;SDS011;28444;48.056;14.408;2023-03-17T13:04:16;9.63;;;4.97;;
38911;SDS011;28444;48.056;14.408;2023-03-17T13:12:56;10.25;;;5.30;;
38911;SDS011;28444;48.056;14.408;2023-03-17T13:18:28;7.90;;;5.03;;
38911;SDS011;28444;48.056;14.408;2023-03-17T13:21:15;11.55;;;5.53;;
38911;SDS011;28444;48.056;14.408;2023-03-17T13:23:47;10.98;;;5.35;;
38911;SDS011;28444;48.056;14.408;2023-03-17T13:26:21;10.05;;;5.88;;
38911;SDS011;28444;48.056;14.408;2023-03-17T13:29:21;11.57;;;5.38;;
38911;SDS011;28444;48.056;14.408;2023-03-17T13:35:12;9.75;;;4.95;;
38911;SDS011;28444;48.056;14.408;2023-03-17T13:38:28;12.75;;;5.82;;
38911;SDS011;28444;48.056;14.408;2023-03-17T13:49:22;15.55;;;4.60;;
38911;SDS011;28444;48.056;14.408;2023-03-17T14:00:59;10.85;;;4.78;;
38911;SDS011;28444;48.056;14.408;2023-03-17T14:03:45;10.00;;;4.70;;
38911;SDS011;28444;48.056;14.408;2023-03-17T14:06:14;26.60;;;4.57;;
38911;SDS011;28444;48.056;14.408;2023-03-17T14:08:45;11.13;;;4.32;;
38911;SDS011;28444;48.056;14.408;2023-03-17T14:11:21;7.45;;;4.32;;
38911;SDS011;28444;48.056;14.408;2023-03-17T14:14:13;9.52;;;3.72;;
38911;SDS011;28444;48.056;14.408;2023-03-17T14:17:07;7.88;;;4.28;;
38911;SDS011;28444;48.056;14.408;2023-03-17T14:19:39;9.43;;;3.95;;
38911;SDS011;28444;48.056;14.408;2023-03-17T14:22:21;9.23;;;3.83;;
38911;SDS011;28444;48.056;14.408;2023-03-17T14:24:50;26.15;;;4.80;;
38911;SDS011;28444;48.056;14.408;2023-03-17T14:27:19;6.38;;;3.65;;
38911;SDS011;28444;48.056;14.408;2023-03-17T14:29:47;9.55;;;3.83;;
38911;SDS011;28444;48.056;14.408;2023-03-17T14:32:15;7.03;;;3.50;;
38911;SDS011;28444;48.056;14.408;2023-03-17T14:34:47;7.95;;;3.97;;
38911;SDS011;28444;48.056;14.408;2023-03-17T14:37:20;6.15;;;3.10;;
38911;SDS011;28444;48.056;14.408;2023-03-17T14:39:52;10.45;;;3.55;;
38911;SDS011;28444;48.056;14.408;2023-03-17T14:44:58;10.27;;;3.88;;
38911;SDS011;28444;48.056;14.408;2023-03-17T14:47:31;5.55;;;3.47;;
38911;SDS011;28444;48.056;14.408;2023-03-17T14:50:04;6.55;;;3.17;;
38911;SDS011;28444;48.056;14.408;2023-03-17T14:52:40;7.28;;;3.85;;
38911;SDS011;28444;48.056;14.408;2023-03-17T14:55:11;9.70;;;4.22;;
38911;SDS011;28444;48.056;14.408;2023-03-17T14:57:40;8.85;;;4.05;;
38911;SDS011;28444;48.056;14.408;2023-03-17T15:03:02;6.88;;;3.58;;
38911;SDS011;28444;48.056;14.408;2023-03-17T15:05:41;5.85;;;4.07;;
38911;SDS011;28444;48.056;14.408;2023-03-17T15:11:24;5.78;;;3.45;;
38911;SDS011;28444;48.056;14.408;2023-03-17T15:13:54;8.70;;;3.72;;
38911;SDS011;28444;48.056;14.408;2023-03-17T15:16:29;5.78;;;3.70;;
38911;SDS011;28444;48.056;14.408;2023-03-17T15:19:20;10.35;;;3.80;;
38911;SDS011;28444;48.056;14.408;2023-03-17T15:21:51;8.05;;;3.95;;
38911;SDS011;28444;48.056;14.408;2023-03-17T15:24:22;9.15;;;3.90;;
38911;SDS011;28444;48.056;14.408;2023-03-17T15:26:58;5.95;;;3.15;;
38911;SDS011;28444;48.056;14.408;2023-03-17T15:29:26;7.15;;;3.83;;
38911;SDS011;28444;48.056;14.408;2023-03-17T15:31:58;7.40;;;3.55;;
38911;SDS011;28444;48.056;14.408;2023-03-17T15:34:28;11.70;;;3.97;;
38911;SDS011;28444;48.056;14.408;2023-03-17T15:36:54;4.70;;;3.05;;
38911;SDS011;28444;48.056;14.408;2023-03-17T15:39:23;8.20;;;3.95;;
38911;SDS011;28444;48.056;14.408;2023-03-17T15:41:49;6.57;;;3.60;;
38911;SDS011;28444;48.056;14.408;2023-03-17T15:44:17;13.48;;;4.00;;
38911;SDS011;28444;48.056;14.408;2023-03-17T15:46:43;9.27;;;3.50;;
38911;SDS011;28444;48.056;14.408;2023-03-17T15:49:11;6.78;;;3.67;;
38911;SDS011;28444;48.056;14.408;2023-03-17T15:51:38;7.55;;;3.88;;
38911;SDS011;28444;48.056;14.408;2023-03-17T15:54:04;5.50;;;3.05;;
38911;SDS011;28444;48.056;14.408;2023-03-17T15:56:31;7.72;;;3.45;;
38911;SDS011;28444;48.056;14.408;2023-03-17T15:58:59;6.60;;;3.00;;
38911;SDS011;28444;48.056;14.408;2023-03-17T16:01:26;8.38;;;3.63;;
38911;SDS011;28444;48.056;14.408;2023-03-17T16:03:53;5.40;;;3.22;;
38911;SDS011;28444;48.056;14.408;2023-03-17T16:06:20;8.13;;;3.58;;
38911;SDS011;28444;48.056;14.408;2023-03-17T16:08:49;5.72;;;3.53;;
38911;SDS011;28444;48.056;14.408;2023-03-17T16:11:17;6.60;;;3.38;;